Terminal Aerodrome Forecast
Issued by NWS

Home | Current Version | Previous Version | Text Only | Print | Product List | Glossary On
Versions: 1 2 3 4 5 6 7 8 9 10 11 12 13 14 15 16 17
000
FTUS43 KEAX 201729
TAFSTJ
TAF
KSTJ 201729Z 2018/2118 22023G34KT P6SM SCT250
     FM202300 21012KT P6SM FEW250
     FM211300 34015KT P6SM BKN200=

USA.gov is the U.S. government's official web portal to all federal, state and local government web resources and services.